sensor_id;sensor_type;location;lat;lon;timestamp;pressure;altitude;pressure_sealevel;temperature;humidity
12987;BME280;58897;51.960;5.582;2023-03-23T00:01:48;99993.94;;;10.81;100.00
12987;BME280;58897;51.960;5.582;2023-03-23T00:04:16;99999.72;;;10.78;100.00
12987;BME280;58897;51.960;5.582;2023-03-23T00:06:42;99993.47;;;10.77;100.00
12987;BME280;58897;51.960;5.582;2023-03-23T00:09:11;99985.38;;;10.77;100.00
12987;BME280;58897;51.960;5.582;2023-03-23T00:11:36;99971.50;;;10.80;100.00
12987;BME280;58897;51.960;5.582;2023-03-23T00:14:02;99974.19;;;10.80;100.00
12987;BME280;58897;51.960;5.582;2023-03-23T00:16:32;99987.91;;;10.79;100.00
12987;BME280;58897;51.960;5.582;2023-03-23T00:19:00;99988.75;;;10.79;100.00
12987;BME280;58897;51.960;5.582;2023-03-23T00:21:33;99984.16;;;10.80;100.00
12987;BME280;58897;51.960;5.582;2023-03-23T00:24:14;99991.06;;;10.82;100.00
12987;BME280;58897;51.960;5.582;2023-03-23T00:26:42;99986.84;;;10.80;100.00
12987;BME280;58897;51.960;5.582;2023-03-23T00:29:16;99994.16;;;10.79;100.00
12987;BME280;58897;51.960;5.582;2023-03-23T00:31:45;99989.41;;;10.81;100.00
12987;BME280;58897;51.960;5.582;2023-03-23T00:34:18;100001.03;;;10.82;100.00
12987;BME280;58897;51.960;5.582;2023-03-23T00:36:46;99994.50;;;10.76;100.00
12987;BME280;58897;51.960;5.582;2023-03-23T00:39:12;100004.47;;;10.76;100.00
12987;BME280;58897;51.960;5.582;2023-03-23T00:41:38;100004.19;;;10.71;100.00
12987;BME280;58897;51.960;5.582;2023-03-23T00:44:03;99998.13;;;10.69;100.00
12987;BME280;58897;51.960;5.582;2023-03-23T00:46:29;99972.34;;;10.66;100.00
12987;BME280;58897;51.960;5.582;2023-03-23T00:48:55;99934.97;;;10.70;100.00
12987;BME280;58897;51.960;5.582;2023-03-23T00:51:23;99935.63;;;10.72;100.00
12987;BME280;58897;51.960;5.582;2023-03-23T00:53:48;99923.81;;;10.73;100.00
12987;BME280;58897;51.960;5.582;2023-03-23T00:56:14;99922.69;;;10.67;100.00
12987;BME280;58897;51.960;5.582;2023-03-23T00:58:40;99915.22;;;10.69;100.00
12987;BME280;58897;51.960;5.582;2023-03-23T01:01:06;99914.22;;;10.70;100.00
12987;BME280;58897;51.960;5.582;2023-03-23T01:03:31;99916.63;;;10.65;100.00
12987;BME280;58897;51.960;5.582;2023-03-23T01:05:57;99904.13;;;10.64;100.00
12987;BME280;58897;51.960;5.582;2023-03-23T01:08:23;99901.19;;;10.74;100.00
12987;BME280;58897;51.960;5.582;2023-03-23T01:10:49;99899.50;;;10.73;100.00
12987;BME280;58897;51.960;5.582;2023-03-23T01:13:15;99915.22;;;10.69;100.00
12987;BME280;58897;51.960;5.582;2023-03-23T01:15:42;99917.75;;;10.71;100.00
12987;BME280;58897;51.960;5.582;2023-03-23T01:18:08;99909.19;;;10.82;100.00
12987;BME280;58897;51.960;5.582;2023-03-23T01:20:35;99910.09;;;10.74;100.00
12987;BME280;58897;51.960;5.582;2023-03-23T01:23:01;99913.63;;;10.75;100.00
12987;BME280;58897;51.960;5.582;2023-03-23T01:25:31;99885.63;;;10.76;100.00
12987;BME280;58897;51.960;5.582;2023-03-23T01:27:57;99876.47;;;10.77;100.00
12987;BME280;58897;51.960;5.582;2023-03-23T01:30:24;99877.69;;;10.74;100.00
12987;BME280;58897;51.960;5.582;2023-03-23T01:32:50;99870.63;;;10.73;100.00
12987;BME280;58897;51.960;5.582;2023-03-23T01:35:16;99888.13;;;10.77;100.00
12987;BME280;58897;51.960;5.582;2023-03-23T01:37:42;99857.19;;;10.80;100.00
12987;BME280;58897;51.960;5.582;2023-03-23T01:40:09;99874.34;;;10.72;100.00
12987;BME280;58897;51.960;5.582;2023-03-23T01:42:36;99860.25;;;10.77;100.00
12987;BME280;58897;51.960;5.582;2023-03-23T01:45:24;99871.06;;;10.77;100.00
12987;BME280;58897;51.960;5.582;2023-03-23T01:47:58;99878.06;;;10.86;100.00
12987;BME280;58897;51.960;5.582;2023-03-23T01:50:25;99872.00;;;10.84;100.00
12987;BME280;58897;51.960;5.582;2023-03-23T01:52:54;99865.13;;;10.81;100.00
12987;BME280;58897;51.960;5.582;2023-03-23T01:55:22;99869.69;;;10.81;100.00
12987;BME280;58897;51.960;5.582;2023-03-23T01:57:49;99870.78;;;10.86;100.00
12987;BME280;58897;51.960;5.582;2023-03-23T02:00:15;99875.56;;;10.84;100.00
12987;BME280;58897;51.960;5.582;2023-03-23T02:02:46;99872.66;;;10.86;100.00
12987;BME280;58897;51.960;5.582;2023-03-23T02:05:23;99864.53;;;10.86;100.00
12987;BME280;58897;51.960;5.582;2023-03-23T02:07:51;99863.34;;;10.88;100.00
12987;BME280;58897;51.960;5.582;2023-03-23T02:10:17;99863.34;;;10.88;100.00
12987;BME280;58897;51.960;5.582;2023-03-23T02:12:43;99845.91;;;10.91;100.00
12987;BME280;58897;51.960;5.582;2023-03-23T02:15:08;99847.97;;;10.89;100.00
12987;BME280;58897;51.960;5.582;2023-03-23T02:17:49;99839.22;;;10.87;100.00
12987;BME280;58897;51.960;5.582;2023-03-23T02:20:29;99860.34;;;10.83;100.00
12987;BME280;58897;51.960;5.582;2023-03-23T02:26:12;99845.53;;;10.94;100.00
12987;BME280;58897;51.960;5.582;2023-03-23T02:34:14;99860.91;;;10.93;100.00
12987;BME280;58897;51.960;5.582;2023-03-23T02:37:04;99863.34;;;10.88;100.00
12987;BME280;58897;51.960;5.582;2023-03-23T02:39:34;99852.41;;;10.96;100.00
12987;BME280;58897;51.960;5.582;2023-03-23T02:42:05;99861.00;;;11.00;100.00
12987;BME280;58897;51.960;5.582;2023-03-23T02:44:33;99863.03;;;10.98;100.00
12987;BME280;58897;51.960;5.582;2023-03-23T02:47:04;99861.63;;;11.02;100.00
12987;BME280;58897;51.960;5.582;2023-03-23T02:49:32;99861.63;;;11.02;100.00
12987;BME280;58897;51.960;5.582;2023-03-23T02:52:05;99857.88;;;11.03;100.00
12987;BME280;58897;51.960;5.582;2023-03-23T02:54:33;99855.38;;;11.01;100.00
12987;BME280;58897;51.960;5.582;2023-03-23T02:56:59;99845.84;;;11.05;100.00
12987;BME280;58897;51.960;5.582;2023-03-23T02:59:26;99842.59;;;11.10;100.00
12987;BME280;58897;51.960;5.582;2023-03-23T03:01:56;99843.44;;;11.10;100.00
12987;BME280;58897;51.960;5.582;2023-03-23T03:04:26;99844.25;;;11.11;100.00
12987;BME280;58897;51.960;5.582;2023-03-23T03:07:01;99857.59;;;11.12;100.00
12987;BME280;58897;51.960;5.582;2023-03-23T03:10:02;99851.56;;;11.10;100.00
12987;BME280;58897;51.960;5.582;2023-03-23T03:15:31;99834.06;;;11.28;100.00
12987;BME280;58897;51.960;5.582;2023-03-23T03:18:16;99836.75;;;11.28;100.00
12987;BME280;58897;51.960;5.582;2023-03-23T03:20:55;99841.06;;;11.22;100.00
12987;BME280;58897;51.960;5.582;2023-03-23T03:23:24;99831.94;;;11.23;100.00
12987;BME280;58897;51.960;5.582;2023-03-23T03:25:51;99837.53;;;11.22;100.00
12987;BME280;58897;51.960;5.582;2023-03-23T03:28:20;99830.47;;;11.21;100.00
12987;BME280;58897;51.960;5.582;2023-03-23T03:31:06;99825.94;;;11.28;100.00
12987;BME280;58897;51.960;5.582;2023-03-23T03:33:33;99833.44;;;11.26;100.00
12987;BME280;58897;51.960;5.582;2023-03-23T03:36:03;99838.88;;;11.32;100.00
12987;BME280;58897;51.960;5.582;2023-03-23T03:38:29;99830.13;;;11.30;100.00
12987;BME280;58897;51.960;5.582;2023-03-23T03:40:55;99833.22;;;11.27;100.00
12987;BME280;58897;51.960;5.582;2023-03-23T03:43:21;99837.50;;;11.36;100.00
12987;BME280;58897;51.960;5.582;2023-03-23T03:45:46;99835.81;;;11.35;100.00
12987;BME280;58897;51.960;5.582;2023-03-23T03:48:12;99840.94;;;11.30;100.00
12987;BME280;58897;51.960;5.582;2023-03-23T03:50:38;99828.72;;;11.34;100.00
12987;BME280;58897;51.960;5.582;2023-03-23T03:53:04;99825.63;;;11.37;100.00
12987;BME280;58897;51.960;5.582;2023-03-23T03:55:32;99831.88;;;11.38;100.00
12987;BME280;58897;51.960;5.582;2023-03-23T03:58:02;99822.16;;;11.43;100.00
12987;BME280;58897;51.960;5.582;2023-03-23T04:00:30;99824.59;;;11.38;100.00
12987;BME280;58897;51.960;5.582;2023-03-23T04:02:55;99839.16;;;11.37;100.00
12987;BME280;58897;51.960;5.582;2023-03-23T04:05:22;99821.69;;;11.40;100.00
12987;BME280;58897;51.960;5.582;2023-03-23T04:07:48;99818.34;;;11.38;100.00
12987;BME280;58897;51.960;5.582;2023-03-23T04:10:17;99818.63;;;11.43;100.00
12987;BME280;58897;51.960;5.582;2023-03-23T04:12:45;99816.13;;;11.41;100.00
12987;BME280;58897;51.960;5.582;2023-03-23T04:15:11;99811.13;;;11.45;100.00
12987;BME280;58897;51.960;5.582;2023-03-23T04:17:36;99814.09;;;11.50;100.00
12987;BME280;58897;51.960;5.582;2023-03-23T04:20:04;99815.19;;;11.55;100.00
12987;BME280;58897;51.960;5.582;2023-03-23T04:22:39;99822.63;;;11.47;100.00
12987;BME280;58897;51.960;5.582;2023-03-23T04:25:10;99817.78;;;11.42;100.00
12987;BME280;58897;51.960;5.582;2023-03-23T04:27:38;99822.88;;;11.52;100.00
12987;BME280;58897;51.960;5.582;2023-03-23T04:30:04;99827.63;;;11.50;100.00
12987;BME280;58897;51.960;5.582;2023-03-23T04:32:31;99836.31;;;11.45;100.00
12987;BME280;58897;51.960;5.582;2023-03-23T04:35:00;99845.28;;;11.46;100.00
12987;BME280;58897;51.960;5.582;2023-03-23T04:37:26;99835.69;;;11.43;100.00
12987;BME280;58897;51.960;5.582;2023-03-23T04:39:57;99851.69;;;11.45;100.00
12987;BME280;58897;51.960;5.582;2023-03-23T04:42:30;99845.75;;;11.49;100.00
12987;BME280;58897;51.960;5.582;2023-03-23T04:44:57;99841.13;;;11.50;100.00
12987;BME280;58897;51.960;5.582;2023-03-23T04:47:24;99841.56;;;11.47;100.00
12987;BME280;58897;51.960;5.582;2023-03-23T04:49:50;99839.50;;;11.49;100.00
12987;BME280;58897;51.960;5.582;2023-03-23T04:52:17;99846.75;;;11.48;100.00
12987;BME280;58897;51.960;5.582;2023-03-23T04:54:43;99855.25;;;11.45;100.00
12987;BME280;58897;51.960;5.582;2023-03-23T04:57:09;99839.66;;;11.47;100.00
12987;BME280;58897;51.960;5.582;2023-03-23T04:59:35;99850.34;;;11.55;100.00
12987;BME280;58897;51.960;5.582;2023-03-23T05:02:00;99859.06;;;11.51;100.00
12987;BME280;58897;51.960;5.582;2023-03-23T05:04:26;99856.47;;;11.43;100.00
12987;BME280;58897;51.960;5.582;2023-03-23T05:06:51;99856.69;;;11.41;100.00
12987;BME280;58897;51.960;5.582;2023-03-23T05:09:17;99847.50;;;11.42;100.00
12987;BME280;58897;51.960;5.582;2023-03-23T05:11:43;99861.25;;;11.41;100.00
12987;BME280;58897;51.960;5.582;2023-03-23T05:14:08;99865.91;;;11.47;100.00
12987;BME280;58897;51.960;5.582;2023-03-23T05:16:35;99857.53;;;11.42;100.00
12987;BME280;58897;51.960;5.582;2023-03-23T05:19:04;99859.38;;;11.41;100.00
12987;BME280;58897;51.960;5.582;2023-03-23T05:21:30;99859.56;;;11.40;100.00
12987;BME280;58897;51.960;5.582;2023-03-23T05:23:56;99855.19;;;11.39;100.00
12987;BME280;58897;51.960;5.582;2023-03-23T05:26:22;99862.84;;;11.35;100.00
12987;BME280;58897;51.960;5.582;2023-03-23T05:28:49;99865.06;;;11.32;100.00
12987;BME280;58897;51.960;5.582;2023-03-23T05:31:18;99851.00;;;11.36;100.00
12987;BME280;58897;51.960;5.582;2023-03-23T05:33:44;99856.16;;;11.31;100.00
12987;BME280;58897;51.960;5.582;2023-03-23T05:36:11;99856.16;;;11.31;100.00
12987;BME280;58897;51.960;5.582;2023-03-23T05:38:39;99859.25;;;11.28;100.00
12987;BME280;58897;51.960;5.582;2023-03-23T05:41:07;99859.03;;;11.30;100.00
12987;BME280;58897;51.960;5.582;2023-03-23T05:43:33;99862.78;;;11.29;100.00
12987;BME280;58897;51.960;5.582;2023-03-23T05:45:59;99871.91;;;11.28;100.00
12987;BME280;58897;51.960;5.582;2023-03-23T05:48:25;99862.97;;;11.27;100.00
12987;BME280;58897;51.960;5.582;2023-03-23T05:50:51;99872.56;;;11.30;100.00
12987;BME280;58897;51.960;5.582;2023-03-23T05:53:17;99866.50;;;11.28;100.00
12987;BME280;58897;51.960;5.582;2023-03-23T05:55:42;99873.59;;;11.29;100.00
12987;BME280;58897;51.960;5.582;2023-03-23T05:58:07;99867.53;;;11.27;100.00
12987;BME280;58897;51.960;5.582;2023-03-23T06:00:33;99873.19;;;11.32;100.00
12987;BME280;58897;51.960;5.582;2023-03-23T06:02:59;99870.50;;;11.32;100.00
12987;BME280;58897;51.960;5.582;2023-03-23T06:05:26;99874.88;;;11.33;100.00
12987;BME280;58897;51.960;5.582;2023-03-23T06:07:52;99879.44;;;11.32;100.00
12987;BME280;58897;51.960;5.582;2023-03-23T06:10:18;99873.75;;;11.42;100.00
12987;BME280;58897;51.960;5.582;2023-03-23T06:12:44;99873.06;;;11.40;100.00
12987;BME280;58897;51.960;5.582;2023-03-23T06:15:10;99870.63;;;11.45;100.00
12987;BME280;58897;51.960;5.582;2023-03-23T06:17:36;99881.28;;;11.46;100.00
12987;BME280;58897;51.960;5.582;2023-03-23T06:20:05;99895.19;;;11.43;100.00
12987;BME280;58897;51.960;5.582;2023-03-23T06:22:38;99895.19;;;11.43;100.00
12987;BME280;58897;51.960;5.582;2023-03-23T06:25:09;99907.00;;;11.42;100.00
12987;BME280;58897;51.960;5.582;2023-03-23T06:27:34;99898.91;;;11.42;100.00
12987;BME280;58897;51.960;5.582;2023-03-23T06:30:01;99901.81;;;11.41;100.00
12987;BME280;58897;51.960;5.582;2023-03-23T06:32:28;99902.66;;;11.41;100.00
12987;BME280;58897;51.960;5.582;2023-03-23T06:34:55;99905.16;;;11.43;100.00
12987;BME280;58897;51.960;5.582;2023-03-23T06:37:22;99914.47;;;11.40;100.00
12987;BME280;58897;51.960;5.582;2023-03-23T06:39:48;99910.28;;;11.38;100.00
12987;BME280;58897;51.960;5.582;2023-03-23T06:42:14;99922.78;;;11.39;100.00
12987;BME280;58897;51.960;5.582;2023-03-23T06:44:39;99924.00;;;11.36;100.00
12987;BME280;58897;51.960;5.582;2023-03-23T06:47:05;99932.13;;;11.36;100.00
12987;BME280;58897;51.960;5.582;2023-03-23T06:49:30;99929.88;;;11.40;100.00
12987;BME280;58897;51.960;5.582;2023-03-23T06:51:57;99930.53;;;11.42;100.00
12987;BME280;58897;51.960;5.582;2023-03-23T06:54:22;99937.59;;;11.43;100.00
12987;BME280;58897;51.960;5.582;2023-03-23T06:56:48;99933.50;;;11.47;100.00
12987;BME280;58897;51.960;5.582;2023-03-23T06:59:13;99945.81;;;11.49;100.00
12987;BME280;58897;51.960;5.582;2023-03-23T07:01:39;99939.81;;;11.54;100.00
12987;BME280;58897;51.960;5.582;2023-03-23T07:04:05;99934.78;;;11.51;100.00
12987;BME280;58897;51.960;5.582;2023-03-23T07:06:30;99943.53;;;11.53;100.00
12987;BME280;58897;51.960;5.582;2023-03-23T07:08:56;99947.28;;;11.52;100.00
12987;BME280;58897;51.960;5.582;2023-03-23T07:11:21;99953.34;;;11.54;100.00
12987;BME280;58897;51.960;5.582;2023-03-23T07:13:47;99949.78;;;11.53;100.00
12987;BME280;58897;51.960;5.582;2023-03-23T07:16:15;99947.72;;;11.55;100.00
12987;BME280;58897;51.960;5.582;2023-03-23T07:18:40;99952.38;;;11.61;100.00
12987;BME280;58897;51.960;5.582;2023-03-23T07:21:06;99948.84;;;11.61;100.00
12987;BME280;58897;51.960;5.582;2023-03-23T07:23:31;99956.56;;;11.64;100.00
12987;BME280;58897;51.960;5.582;2023-03-23T07:25:57;99961.72;;;11.59;100.00
12987;BME280;58897;51.960;5.582;2023-03-23T07:28:22;99970.78;;;11.51;100.00
12987;BME280;58897;51.960;5.582;2023-03-23T07:30:48;99972.84;;;11.49;100.00
12987;BME280;58897;51.960;5.582;2023-03-23T07:33:13;99967.19;;;11.44;100.00
12987;BME280;58897;51.960;5.582;2023-03-23T07:35:39;99986.22;;;11.36;100.00
12987;BME280;58897;51.960;5.582;2023-03-23T07:38:05;99989.09;;;11.35;100.00
12987;BME280;58897;51.960;5.582;2023-03-23T07:40:32;99982.56;;;11.29;100.00
12987;BME280;58897;51.960;5.582;2023-03-23T07:42:59;99989.38;;;11.25;100.00
12987;BME280;58897;51.960;5.582;2023-03-23T07:45:25;99986.41;;;11.20;100.00
12987;BME280;58897;51.960;5.582;2023-03-23T07:47:51;99984.66;;;11.12;100.00
12987;BME280;58897;51.960;5.582;2023-03-23T07:50:18;99997.22;;;11.05;100.00
12987;BME280;58897;51.960;5.582;2023-03-23T07:52:47;99995.34;;;11.06;100.00
12987;BME280;58897;51.960;5.582;2023-03-23T07:55:13;99994.78;;;10.96;100.00
12987;BME280;58897;51.960;5.582;2023-03-23T07:57:45;100021.66;;;10.97;100.00
12987;BME280;58897;51.960;5.582;2023-03-23T08:00:12;100023.66;;;10.95;100.00
12987;BME280;58897;51.960;5.582;2023-03-23T08:02:41;100022.94;;;10.87;100.00
12987;BME280;58897;51.960;5.582;2023-03-23T08:05:07;100036.16;;;10.82;100.00
12987;BME280;58897;51.960;5.582;2023-03-23T08:07:34;100035.50;;;10.80;100.00
12987;BME280;58897;51.960;5.582;2023-03-23T08:10:00;100036.34;;;10.80;100.00
12987;BME280;58897;51.960;5.582;2023-03-23T08:12:26;100033.47;;;10.82;100.00
12987;BME280;58897;51.960;5.582;2023-03-23T08:14:52;100041.56;;;10.82;100.00
12987;BME280;58897;51.960;5.582;2023-03-23T08:17:19;100057.59;;;10.83;100.00
12987;BME280;58897;51.960;5.582;2023-03-23T08:19:45;100062.34;;;10.81;100.00
12987;BME280;58897;51.960;5.582;2023-03-23T08:22:11;100069.78;;;10.79;100.00
12987;BME280;58897;51.960;5.582;2023-03-23T08:24:37;100079.84;;;10.85;100.00
12987;BME280;58897;51.960;5.582;2023-03-23T08:27:03;100075.56;;;10.91;100.00
12987;BME280;58897;51.960;5.582;2023-03-23T08:29:29;100057.44;;;11.14;100.00
12987;BME280;58897;51.960;5.582;2023-03-23T08:31:57;100065.81;;;11.19;100.00
12987;BME280;58897;51.960;5.582;2023-03-23T08:34:22;100043.75;;;11.15;100.00
12987;BME280;58897;51.960;5.582;2023-03-23T08:36:48;100041.22;;;10.99;100.00
12987;BME280;58897;51.960;5.582;2023-03-23T08:39:13;100040.38;;;10.99;100.00
12987;BME280;58897;51.960;5.582;2023-03-23T08:41:43;100052.28;;;10.90;100.00
12987;BME280;58897;51.960;5.582;2023-03-23T08:44:10;100045.38;;;10.87;100.00
12987;BME280;58897;51.960;5.582;2023-03-23T08:46:35;100036.25;;;11.03;100.00
12987;BME280;58897;51.960;5.582;2023-03-23T08:49:01;100048.03;;;11.10;100.00
12987;BME280;58897;51.960;5.582;2023-03-23T08:51:26;100048.09;;;11.16;100.00
12987;BME280;58897;51.960;5.582;2023-03-23T08:53:52;100053.59;;;11.08;100.00
12987;BME280;58897;51.960;5.582;2023-03-23T08:56:19;100051.94;;;11.22;100.00
12987;BME280;58897;51.960;5.582;2023-03-23T08:58:45;100039.91;;;11.10;100.00
12987;BME280;58897;51.960;5.582;2023-03-23T09:01:10;100043.66;;;11.24;100.00
12987;BME280;58897;51.960;5.582;2023-03-23T09:03:36;100049.06;;;11.24;100.00
12987;BME280;58897;51.960;5.582;2023-03-23T09:06:04;100049.00;;;11.82;100.00
12987;BME280;58897;51.960;5.582;2023-03-23T09:08:30;100053.78;;;11.80;100.00
12987;BME280;58897;51.960;5.582;2023-03-23T09:11:02;100046.25;;;12.81;100.00
12987;BME280;58897;51.960;5.582;2023-03-23T09:13:27;100033.53;;;13.10;100.00
12987;BME280;58897;51.960;5.582;2023-03-23T09:15:53;100034.72;;;12.52;100.00
12987;BME280;58897;51.960;5.582;2023-03-23T09:18:19;100034.34;;;12.55;100.00
12987;BME280;58897;51.960;5.582;2023-03-23T09:20:45;100020.25;;;13.62;100.00
12987;BME280;58897;51.960;5.582;2023-03-23T09:23:10;100014.44;;;14.39;100.00
12987;BME280;58897;51.960;5.582;2023-03-23T09:25:38;100020.81;;;13.44;100.00
12987;BME280;58897;51.960;5.582;2023-03-23T09:28:04;100026.31;;;12.68;100.00
12987;BME280;58897;51.960;5.582;2023-03-23T09:30:31;100039.22;;;12.38;100.00
12987;BME280;58897;51.960;5.582;2023-03-23T09:32:59;100045.38;;;12.32;100.00
12987;BME280;58897;51.960;5.582;2023-03-23T09:35:26;100048.34;;;12.58;100.00
12987;BME280;58897;51.960;5.582;2023-03-23T09:37:52;100035.25;;;12.89;100.00
12987;BME280;58897;51.960;5.582;2023-03-23T09:40:20;100036.97;;;12.97;100.00
12987;BME280;58897;51.960;5.582;2023-03-23T09:45:47;100040.00;;;13.43;100.00
12987;BME280;58897;51.960;5.582;2023-03-23T09:48:38;100041.66;;;13.37;100.00
12987;BME280;58897;51.960;5.582;2023-03-23T09:53:56;100044.09;;;14.99;100.00
12987;BME280;58897;51.960;5.582;2023-03-23T09:56:30;100028.19;;;15.16;100.00
12987;BME280;58897;51.960;5.582;2023-03-23T09:59:09;100028.59;;;16.59;100.00
12987;BME280;58897;51.960;5.582;2023-03-23T10:01:45;100033.38;;;15.50;100.00
12987;BME280;58897;51.960;5.582;2023-03-23T10:06:45;100050.59;;;15.24;100.00
12987;BME280;58897;51.960;5.582;2023-03-23T10:09:15;100034.66;;;15.28;100.00
12987;BME280;58897;51.960;5.582;2023-03-23T10:17:29;100040.09;;;16.67;100.00
12987;BME280;58897;51.960;5.582;2023-03-23T10:20:19;100047.00;;;16.70;100.00
12987;BME280;58897;51.960;5.582;2023-03-23T10:25:39;100048.41;;;16.97;100.00
12987;BME280;58897;51.960;5.582;2023-03-23T10:28:12;100052.44;;;16.32;100.00
12987;BME280;58897;51.960;5.582;2023-03-23T10:30:51;100049.66;;;15.63;100.00
12987;BME280;58897;51.960;5.582;2023-03-23T10:33:23;100066.69;;;15.13;100.00
12987;BME280;58897;51.960;5.582;2023-03-23T10:36:16;100060.38;;;17.21;100.00
12987;BME280;58897;51.960;5.582;2023-03-23T10:39:05;100070.19;;;15.59;100.00
12987;BME280;58897;51.960;5.582;2023-03-23T10:41:33;100074.00;;;15.32;100.00
12987;BME280;58897;51.960;5.582;2023-03-23T10:43:58;100059.13;;;16.05;100.00
12987;BME280;58897;51.960;5.582;2023-03-23T10:46:46;100065.66;;;16.66;100.00
12987;BME280;58897;51.960;5.582;2023-03-23T10:49:42;100065.19;;;16.76;100.00
12987;BME280;58897;51.960;5.582;2023-03-23T10:54:57;100057.47;;;15.27;100.00
12987;BME280;58897;51.960;5.582;2023-03-23T10:57:28;100050.75;;;16.38;100.00
12987;BME280;58897;51.960;5.582;2023-03-23T11:00:16;100063.53;;;16.37;100.00
12987;BME280;58897;51.960;5.582;2023-03-23T11:03:03;100053.53;;;16.87;100.00
12987;BME280;58897;51.960;5.582;2023-03-23T11:05:37;100041.63;;;15.81;100.00
12987;BME280;58897;51.960;5.582;2023-03-23T11:08:03;100058.91;;;15.49;100.00
12987;BME280;58897;51.960;5.582;2023-03-23T11:10:55;100053.72;;;15.21;100.00
12987;BME280;58897;51.960;5.582;2023-03-23T11:13:23;100062.75;;;15.92;100.00
12987;BME280;58897;51.960;5.582;2023-03-23T11:15:52;100056.03;;;15.11;100.00
12987;BME280;58897;51.960;5.582;2023-03-23T11:18:23;100072.97;;;14.41;100.00
12987;BME280;58897;51.960;5.582;2023-03-23T11:20:54;100060.63;;;13.85;100.00
12987;BME280;58897;51.960;5.582;2023-03-23T11:23:27;100073.59;;;13.83;100.00
12987;BME280;58897;51.960;5.582;2023-03-23T11:26:14;100076.13;;;13.91;100.00
12987;BME280;58897;51.960;5.582;2023-03-23T11:28:52;100058.84;;;14.05;100.00
12987;BME280;58897;51.960;5.582;2023-03-23T11:31:35;100065.00;;;13.79;100.00
12987;BME280;58897;51.960;5.582;2023-03-23T11:34:09;100066.25;;;13.77;100.00
12987;BME280;58897;51.960;5.582;2023-03-23T11:36:40;100060.66;;;14.65;100.00
12987;BME280;58897;51.960;5.582;2023-03-23T11:42:23;100073.19;;;14.53;100.00
12987;BME280;58897;51.960;5.582;2023-03-23T11:44:53;100065.56;;;14.22;100.00
12987;BME280;58897;51.960;5.582;2023-03-23T11:47:29;100061.16;;;14.21;100.00
12987;BME280;58897;51.960;5.582;2023-03-23T11:50:12;100058.53;;;15.13;100.00
12987;BME280;58897;51.960;5.582;2023-03-23T11:53:07;100057.53;;;16.22;100.00
12987;BME280;58897;51.960;5.582;2023-03-23T11:55:51;100054.69;;;15.60;100.00
12987;BME280;58897;51.960;5.582;2023-03-23T11:58:21;100062.91;;;15.47;100.00
12987;BME280;58897;51.960;5.582;2023-03-23T12:00:57;100066.72;;;15.06;100.00
12987;BME280;58897;51.960;5.582;2023-03-23T12:13:56;100069.94;;;14.16;100.00
12987;BME280;58897;51.960;5.582;2023-03-23T12:19:16;100076.41;;;13.27;100.00
12987;BME280;58897;51.960;5.582;2023-03-23T12:22:04;100081.72;;;12.86;100.00
12987;BME280;58897;51.960;5.582;2023-03-23T12:24:57;100097.84;;;12.94;100.00
12987;BME280;58897;51.960;5.582;2023-03-23T12:30:51;100118.06;;;12.50;100.00
12987;BME280;58897;51.960;5.582;2023-03-23T12:42:02;100102.72;;;12.35;100.00
12987;BME280;58897;51.960;5.582;2023-03-23T12:44:46;100116.06;;;12.79;100.00
12987;BME280;58897;51.960;5.582;2023-03-23T12:47:18;100090.94;;;12.64;100.00
12987;BME280;58897;51.960;5.582;2023-03-23T12:49:56;100087.16;;;12.86;100.00
12987;BME280;58897;51.960;5.582;2023-03-23T12:52:27;100094.03;;;12.61;100.00
12987;BME280;58897;51.960;5.582;2023-03-23T12:55:16;100085.31;;;12.66;100.00
12987;BME280;58897;51.960;5.582;2023-03-23T12:57:53;100080.94;;;12.92;100.00
12987;BME280;58897;51.960;5.582;2023-03-23T13:00:28;100077.19;;;12.93;100.00
12987;BME280;58897;51.960;5.582;2023-03-23T13:03:14;100066.38;;;12.72;100.00
12987;BME280;58897;51.960;5.582;2023-03-23T13:05:49;100068.16;;;12.59;100.00
12987;BME280;58897;51.960;5.582;2023-03-23T13:10:56;100058.84;;;14.05;100.00
12987;BME280;58897;51.960;5.582;2023-03-23T13:13:26;100058.16;;;14.96;100.00
12987;BME280;58897;51.960;5.582;2023-03-23T13:16:06;100062.66;;;15.55;100.00
12987;BME280;58897;51.960;5.582;2023-03-23T13:18:54;100055.16;;;15.37;100.00
12987;BME280;58897;51.960;5.582;2023-03-23T13:24:02;100054.94;;;16.02;100.00
12987;BME280;58897;51.960;5.582;2023-03-23T13:26:29;100058.63;;;16.15;100.00
12987;BME280;58897;51.960;5.582;2023-03-23T13:28:58;100053.81;;;16.17;100.00
12987;BME280;58897;51.960;5.582;2023-03-23T13:31:35;100047.50;;;16.23;100.00
12987;BME280;58897;51.960;5.582;2023-03-23T13:34:28;100044.88;;;16.03;100.00
12987;BME280;58897;51.960;5.582;2023-03-23T13:37:05;100055.03;;;15.83;100.00
12987;BME280;58897;51.960;5.582;2023-03-23T13:39:36;100058.34;;;14.62;100.00
12987;BME280;58897;51.960;5.582;2023-03-23T13:50:03;100061.88;;;13.82;100.00
12987;BME280;58897;51.960;5.582;2023-03-23T13:55:31;100072.16;;;13.93;100.00
12987;BME280;58897;51.960;5.582;2023-03-23T14:03:32;100083.44;;;13.49;100.00
12987;BME280;58897;51.960;5.582;2023-03-23T14:10:58;100056.63;;;13.74;100.00
12987;BME280;58897;51.960;5.582;2023-03-23T14:16:17;100057.88;;;14.32;100.00
12987;BME280;58897;51.960;5.582;2023-03-23T14:18:52;100062.59;;;13.97;100.00
12987;BME280;58897;51.960;5.582;2023-03-23T14:21:30;100081.72;;;13.76;100.00
12987;BME280;58897;51.960;5.582;2023-03-23T14:24:00;100051.47;;;13.92;100.00
12987;BME280;58897;51.960;5.582;2023-03-23T14:26:25;100054.09;;;14.27;100.00
12987;BME280;58897;51.960;5.582;2023-03-23T14:28:52;100048.47;;;14.28;100.00